Time;durP1;ratioP1;P1;durP2;ratioP2;P2;SDS_P1;SDS_P2;PMS_P1;PMS_P2;Temp;Humidity;BMP_temperature;BMP_pressure;BME280_temperature;BME280_humidity;BME280_pressure;Samples;Min_cycle;Max_cycle;Signal;HPM_P1;HPM_P2
2022/06/14 00:00:57;;;;;;;4.10;1.75;;;18.80;99.90;;;;;;4157662;28;20080;-68
2022/06/14 00:02:58;;;;;;;3.00;1.55;;;18.90;99.90;;;;;;4156176;28;20115;-66
2022/06/14 00:04:59;;;;;;;2.85;2.10;;;18.80;99.90;;;;;;4157452;28;20092;-66
2022/06/14 00:07:00;;;;;;;1.90;1.75;;;18.80;99.90;;;;;;4156076;28;20037;-70
2022/06/14 00:09:02;;;;;;;6.22;2.75;;;18.80;99.90;;;;;;4157371;28;20083;-68
2022/06/14 00:11:16;;;;;;;4.65;1.83;;;18.80;99.90;;;;;;4156163;28;20037;-70
2022/06/14 00:13:18;;;;;;;6.15;1.88;;;18.80;99.90;;;;;;4157005;28;20041;-67
2022/06/14 00:15:19;;;;;;;2.92;1.75;;;18.80;99.90;;;;;;4156086;28;20482;-66
2022/06/14 00:17:20;;;;;;;3.97;1.98;;;18.80;99.90;;;;;;4156872;28;20038;-65
2022/06/14 00:19:21;;;;;;;4.03;1.75;;;18.80;99.90;;;;;;4156125;28;20021;-67
2022/06/14 00:21:22;;;;;;;2.17;1.80;;;18.70;99.90;;;;;;4156135;28;20424;-67
2022/06/14 00:23:24;;;;;;;2.80;2.00;;;18.70;99.90;;;;;;4157019;28;20152;-68
2022/06/14 00:25:36;;;;;;;2.22;1.98;;;18.60;99.90;;;;;;4156032;28;20049;-67
2022/06/14 00:27:37;;;;;;;3.30;2.33;;;18.60;99.90;;;;;;4156514;28;20037;-67
2022/06/14 00:29:39;;;;;;;2.00;1.75;;;18.60;99.90;;;;;;4155903;28;20041;-66
2022/06/14 00:31:40;;;;;;;5.43;1.70;;;18.60;99.90;;;;;;4157138;28;20053;-67
2022/06/14 00:33:41;;;;;;;4.43;2.25;;;18.60;99.90;;;;;;4156080;28;20033;-68
2022/06/14 00:35:43;;;;;;;2.30;2.10;;;18.60;99.90;;;;;;4157230;28;20621;-68
2022/06/14 00:37:44;;;;;;;5.10;2.10;;;18.60;99.90;;;;;;4155678;28;20045;-66
2022/06/14 00:39:45;;;;;;;5.82;2.22;;;18.60;99.90;;;;;;4156800;28;20486;-67
2022/06/14 00:41:53;;;;;;;10.52;2.78;;;18.60;99.90;;;;;;4155553;28;20034;-65
2022/06/14 00:43:55;;;;;;;3.03;1.83;;;18.50;99.90;;;;;;4156972;28;20441;-66
2022/06/14 00:46:05;;;;;;;2.75;2.20;;;18.50;99.90;;;;;;4155731;28;20100;-65
2022/06/14 00:48:28;;;;;;;3.72;1.85;;;18.40;99.90;;;;;;4156993;28;20041;-71
2022/06/14 00:50:39;;;;;;;6.18;3.55;;;18.40;99.90;;;;;;4155336;28;20822;-68
2022/06/14 00:52:45;;;;;;;3.00;2.42;;;18.40;99.90;;;;;;4157005;28;20045;-66
2022/06/14 00:54:51;;;;;;;6.47;2.38;;;18.40;99.90;;;;;;4155551;28;20075;-68
2022/06/14 00:56:58;;;;;;;2.67;2.25;;;18.40;99.90;;;;;;4156831;28;20076;-66
2022/06/14 00:59:03;;;;;;;2.28;2.05;;;18.40;99.90;;;;;;4155287;28;20030;-68
2022/06/14 01:01:08;;;;;;;4.35;2.15;;;18.30;99.90;;;;;;4156774;28;20068;-66
2022/06/14 01:03:16;;;;;;;3.08;1.98;;;18.30;99.90;;;;;;4155161;28;20395;-68
2022/06/14 01:08:00;;;;;;;3.75;2.35;;;18.30;99.90;;;;;;4155315;28;20387;-70
2022/06/14 01:10:08;;;;;;;3.03;2.25;;;18.30;99.90;;;;;;4156606;28;20083;-69
2022/06/14 01:12:13;;;;;;;2.40;2.28;;;18.30;99.90;;;;;;4155587;28;20030;-68
2022/06/14 01:14:19;;;;;;;5.30;2.47;;;18.20;99.90;;;;;;4156498;28;20022;-66
2022/06/14 01:16:20;;;;;;;2.75;2.38;;;18.20;99.90;;;;;;4155138;28;20087;-69
2022/06/14 01:18:25;;;;;;;6.63;3.05;;;18.20;99.90;;;;;;4156536;28;20164;-67
2022/06/14 01:20:26;;;;;;;3.83;2.22;;;18.20;99.90;;;;;;4155643;28;20037;-67
2022/06/14 01:22:29;;;;;;;6.18;2.42;;;18.20;99.90;;;;;;4156266;28;20037;-66
2022/06/14 01:24:32;;;;;;;3.20;2.35;;;18.10;99.90;;;;;;4155019;28;20545;-66
2022/06/14 01:26:34;;;;;;;3.55;2.70;;;18.10;99.90;;;;;;4155704;28;20045;-69
2022/06/14 01:28:38;;;;;;;26.02;5.07;;;18.10;99.90;;;;;;4155691;28;20079;-66
2022/06/14 01:30:45;;;;;;;20.60;5.10;;;18.00;99.90;;;;;;4155730;28;20450;-67
2022/06/14 01:32:57;;;;;;;20.83;4.45;;;18.00;99.90;;;;;;4155237;28;20045;-69
2022/06/14 01:35:02;;;;;;;17.90;4.97;;;17.90;99.90;;;;;;4155794;28;20079;-67
2022/06/14 01:37:04;;;;;;;11.02;4.95;;;17.90;99.90;;;;;;4155774;28;20095;-67
2022/06/14 01:39:11;;;;;;;6.25;4.03;;;17.80;99.90;;;;;;4155169;28;20033;-66
2022/06/14 01:41:43;;;;;;;8.63;4.13;;;17.70;99.90;;;;;;4155691;28;20045;-67
2022/06/14 01:44:02;;;;;;;6.13;3.72;;;17.60;99.90;;;;;;4155781;28;20092;-68
2022/06/14 01:46:12;;;;;;;9.77;4.55;;;17.40;99.90;;;;;;4154868;28;20038;-66
2022/06/14 01:48:23;;;;;;;6.60;3.92;;;17.40;99.90;;;;;;4156158;28;20119;-65
2022/06/14 01:52:52;;;;;;;6.53;3.83;;;17.30;99.90;;;;;;4155926;28;20848;-70
2022/06/14 01:55:35;;;;;;;12.02;4.63;;;17.20;99.90;;;;;;4155718;28;20659;-65
2022/06/14 01:57:44;;;;;;;8.48;3.47;;;17.20;99.90;;;;;;4155783;28;20083;-69
2022/06/14 02:00:09;;;;;;;7.25;3.00;;;17.10;99.90;;;;;;4155175;28;20037;-65
2022/06/14 02:02:24;;;;;;;5.47;2.25;;;17.10;99.90;;;;;;4156282;28;20103;-69
2022/06/14 02:04:39;;;;;;;13.38;2.70;;;16.90;99.90;;;;;;4154884;28;20041;-65
2022/06/14 02:06:53;;;;;;;8.98;2.53;;;16.90;99.90;;;;;;4155746;28;20037;-65
2022/06/14 02:09:07;;;;;;;2.78;2.25;;;16.80;99.90;;;;;;4154662;28;20818;-67
2022/06/14 02:11:14;;;;;;;2.45;2.25;;;16.80;99.90;;;;;;4158865;28;20037;-66
2022/06/14 02:13:21;;;;;;;2.38;2.10;;;16.70;99.90;;;;;;4157975;28;20029;-68
2022/06/14 02:15:36;;;;;;;2.92;2.13;;;16.70;99.90;;;;;;4159150;28;20874;-66
2022/06/14 02:17:47;;;;;;;3.50;2.20;;;16.60;99.90;;;;;;4157617;28;20021;-67
2022/06/14 02:20:03;;;;;;;2.35;2.03;;;16.60;99.90;;;;;;4159405;28;20053;-69
2022/06/14 02:22:13;;;;;;;4.30;2.58;;;16.50;99.90;;;;;;4157633;28;20091;-69
2022/06/14 02:24:29;;;;;;;2.83;2.15;;;16.50;99.90;;;;;;4158684;28;20033;-66
2022/06/14 02:26:39;;;;;;;8.57;1.95;;;16.50;99.90;;;;;;4157494;28;20041;-68
2022/06/14 02:28:47;;;;;;;2.05;1.85;;;16.50;99.90;;;;;;4158768;28;20053;-65
2022/06/14 02:30:56;;;;;;;5.78;1.90;;;16.60;99.90;;;;;;4157543;28;20783;-68
2022/06/14 02:33:21;;;;;;;2.45;1.55;;;16.60;99.90;;;;;;4158488;28;20037;-68
2022/06/14 02:35:33;;;;;;;3.70;1.70;;;16.60;99.90;;;;;;4153766;28;20041;-67
2022/06/14 02:37:58;;;;;;;1.75;1.50;;;16.60;99.90;;;;;;4158050;28;20076;-66
2022/06/14 02:40:08;;;;;;;2.25;1.50;;;16.60;99.90;;;;;;4157962;28;20037;-67
2022/06/14 02:42:34;;;;;;;1.95;1.70;;;16.60;99.90;;;;;;4157351;28;20022;-66
2022/06/14 02:44:53;;;;;;;1.60;1.02;;;16.60;99.90;;;;;;4158452;28;20064;-67
2022/06/14 02:47:15;;;;;;;2.17;1.25;;;16.50;99.90;;;;;;4157129;28;20041;-66
2022/06/14 02:49:32;;;;;;;5.05;1.58;;;16.50;99.90;;;;;;4158751;28;20107;-68
2022/06/14 02:51:42;;;;;;;1.63;1.25;;;16.60;99.90;;;;;;4157198;28;20473;-68
2022/06/14 02:53:52;;;;;;;2.13;1.00;;;16.70;99.90;;;;;;4158597;28;20037;-67
2022/06/14 02:56:01;;;;;;;3.55;1.20;;;16.80;99.90;;;;;;4157169;28;20039;-65
2022/06/14 02:58:08;;;;;;;2.75;0.90;;;17.00;99.90;;;;;;4158257;28;20107;-69
2022/06/14 03:00:21;;;;;;;1.58;1.02;;;17.30;99.90;;;;;;4157082;28;20041;-65
2022/06/14 03:02:33;;;;;;;1.88;1.00;;;17.40;99.90;;;;;;4158407;28;20021;-66
2022/06/14 03:04:43;;;;;;;1.77;0.80;;;17.60;99.90;;;;;;4156959;28;20095;-65
2022/06/14 03:06:57;;;;;;;3.38;0.98;;;17.70;99.90;;;;;;4158330;28;20049;-64
2022/06/14 03:09:17;;;;;;;12.05;1.48;;;17.60;99.90;;;;;;4156017;28;20088;-65
2022/06/14 03:11:38;;;;;;;3.25;1.00;;;17.40;99.90;;;;;;4158074;28;20048;-66
2022/06/14 03:14:17;;;;;;;4.32;0.80;;;17.30;99.90;;;;;;4156976;28;20041;-64
2022/06/14 03:16:31;;;;;;;0.95;0.65;;;17.20;99.90;;;;;;4157958;28;20087;-65
2022/06/14 03:18:41;;;;;;;0.77;0.77;;;17.10;99.90;;;;;;4156984;28;20029;-67
2022/06/14 03:21:00;;;;;;;1.73;0.77;;;17.00;99.90;;;;;;4158116;28;20037;-65
2022/06/14 03:23:20;;;;;;;1.27;0.60;;;17.00;99.90;;;;;;4157132;28;20038;-65
2022/06/14 03:25:24;;;;;;;;;;;16.90;99.90;;;;;;4157851;28;20083;-65
2022/06/14 03:27:31;;;;;;;2.15;0.70;;;16.80;99.90;;;;;;4156466;28;19912;-69
2022/06/14 03:29:39;;;;;;;2.20;0.60;;;16.80;99.90;;;;;;4157631;28;20037;-66
2022/06/14 03:31:57;;;;;;;1.25;0.60;;;17.00;99.90;;;;;;4156955;28;20063;-66
2022/06/14 03:34:11;;;;;;;1.27;0.80;;;17.10;99.90;;;;;;4157508;28;20830;-69
2022/06/14 03:36:14;;;;;;;2.65;1.10;;;17.10;99.90;;;;;;4157650;28;20064;-69
2022/06/14 03:38:23;;;;;;;1.92;0.60;;;17.20;99.90;;;;;;4157066;28;20038;-70
2022/06/14 03:40:24;;;;;;;1.70;0.65;;;17.20;99.90;;;;;;4156705;28;20034;-68
2022/06/14 03:42:25;;;;;;;1.05;0.60;;;17.20;99.90;;;;;;4156985;28;20033;-69
2022/06/14 03:44:28;;;;;;;1.60;0.50;;;17.20;99.90;;;;;;4156441;28;20067;-67
2022/06/14 03:46:40;;;;;;;2.63;0.50;;;17.20;99.90;;;;;;4157308;28;20925;-66
2022/06/14 03:48:46;;;;;;;2.33;0.40;;;17.20;99.90;;;;;;4156664;28;20025;-69
2022/06/14 03:50:56;;;;;;;1.65;0.65;;;17.40;99.90;;;;;;4157247;28;20099;-67
2022/06/14 03:53:22;;;;;;;1.75;0.52;;;17.60;99.90;;;;;;4156251;28;20033;-69
2022/06/14 03:55:43;;;;;;;3.00;0.40;;;18.10;99.90;;;;;;4157358;28;20079;-66
2022/06/14 03:57:59;;;;;;;0.52;0.30;;;18.40;99.90;;;;;;4156098;28;20493;-68
2022/06/14 04:00:16;;;;;;;1.98;0.40;;;18.70;99.90;;;;;;4157046;28;20033;-67
2022/06/14 04:02:55;;;;;;;2.25;0.32;;;18.80;99.90;;;;;;4157107;28;20065;-66
2022/06/14 04:05:05;;;;;;;0.47;0.47;;;19.00;99.90;;;;;;4156168;28;20448;-66
2022/06/14 04:07:12;;;;;;;0.93;0.68;;;19.20;99.90;;;;;;4157992;28;20891;-71
2022/06/14 04:09:25;;;;;;;1.55;0.70;;;19.10;99.90;;;;;;4155827;28;20099;-68
2022/06/14 04:11:49;;;;;;;2.58;0.50;;;19.40;99.90;;;;;;4157504;28;20079;-70
2022/06/14 04:14:20;;;;;;;1.42;0.40;;;19.70;99.90;;;;;;4156165;28;20083;-68
2022/06/14 04:16:48;;;;;;;1.70;0.60;;;19.60;99.90;;;;;;4157205;28;20421;-65
2022/06/14 04:19:24;;;;;;;3.40;1.25;;;19.90;99.90;;;;;;4151022;28;20049;-68
2022/06/14 04:21:54;;;;;;;1.25;0.45;;;20.10;99.90;;;;;;4149165;28;20049;-68
2022/06/14 04:24:26;;;;;;;2.33;0.50;;;20.40;99.90;;;;;;4136731;28;20088;-68
2022/06/14 04:26:48;;;;;;;0.32;0.30;;;20.40;99.90;;;;;;4155831;28;20482;-65
2022/06/14 04:29:17;;;;;;;3.05;0.35;;;20.60;99.90;;;;;;4156623;28;20443;-66
2022/06/14 04:31:47;;;;;;;1.85;0.40;;;20.40;99.90;;;;;;4155703;28;20087;-68
2022/06/14 04:33:56;;;;;;;1.77;0.43;;;20.30;99.90;;;;;;4155989;28;20581;-65
2022/06/14 04:36:02;;;;;;;0.38;0.30;;;20.10;99.90;;;;;;4155791;28;20898;-68
2022/06/14 04:38:25;;;;;;;1.98;0.85;;;20.20;99.90;;;;;;4156847;28;20021;-67
2022/06/14 04:40:35;;;;;;;0.50;0.40;;;20.20;99.90;;;;;;4155679;28;20376;-66
2022/06/14 04:42:44;;;;;;;0.52;0.52;;;20.20;99.90;;;;;;4156622;28;20103;-66
2022/06/14 04:44:56;;;;;;;2.88;0.40;;;20.30;99.90;;;;;;4155077;28;20029;-65
2022/06/14 04:47:06;;;;;;;0.30;0.30;;;20.20;99.90;;;;;;4156840;28;20824;-65
2022/06/14 04:49:30;;;;;;;0.30;0.30;;;20.10;99.90;;;;;;4155588;28;20172;-66
2022/06/14 04:51:39;;;;;;;1.63;0.40;;;20.00;99.90;;;;;;4156442;28;20091;-66
2022/06/14 04:54:10;;;;;;;2.70;0.38;;;20.00;99.90;;;;;;4155391;28;20093;-67
2022/06/14 04:56:19;;;;;;;0.68;0.60;;;20.50;99.90;;;;;;4153436;28;20079;-66
2022/06/14 04:58:27;;;;;;;1.55;0.32;;;20.80;99.90;;;;;;4155105;28;20115;-68
2022/06/14 05:00:35;;;;;;;0.38;0.28;;;20.70;99.90;;;;;;4155899;28;20754;-65
2022/06/14 05:02:51;;;;;;;4.35;0.40;;;20.50;99.90;;;;;;4155643;28;20021;-67
2022/06/14 05:05:01;;;;;;;1.25;0.30;;;20.30;99.90;;;;;;4155694;28;20092;-64
2022/06/14 05:07:33;;;;;;;4.10;0.47;;;20.40;99.90;;;;;;4156234;28;20049;-67
2022/06/14 05:09:55;;;;;;;0.50;0.30;;;20.80;99.90;;;;;;4155452;28;20041;-68
2022/06/14 05:12:22;;;;;;;6.28;2.25;;;20.90;99.90;;;;;;4155888;28;20091;-67
2022/06/14 05:14:53;;;;;;;1.60;0.40;;;21.30;99.90;;;;;;4154804;28;20420;-69
2022/06/14 05:17:14;;;;;;;1.20;0.50;;;21.60;99.90;;;;;;4155069;28;20440;-65
2022/06/14 05:19:30;;;;;;;6.38;0.70;;;21.90;99.90;;;;;;4155034;28;20460;-67
2022/06/14 05:21:41;;;;;;;0.40;0.30;;;22.40;99.90;;;;;;4155786;28;20437;-65
2022/06/14 05:23:46;;;;;;;1.55;0.30;;;22.60;99.90;;;;;;4154629;28;20041;-72
2022/06/14 05:26:15;;;;;;;0.40;0.30;;;22.60;99.90;;;;;;4155940;28;20041;-68
2022/06/14 05:28:41;;;;;;;2.15;0.40;;;23.30;99.90;;;;;;4154953;28;20163;-66
2022/06/14 05:31:16;;;;;;;0.50;0.20;;;23.30;99.90;;;;;;4155001;28;20834;-68
2022/06/14 05:33:26;;;;;;;2.25;0.30;;;22.70;99.50;;;;;;4156035;28;20013;-65
2022/06/14 05:35:33;;;;;;;1.33;0.40;;;22.20;99.90;;;;;;4154898;28;20072;-68
2022/06/14 05:37:46;;;;;;;1.02;0.30;;;22.10;99.90;;;;;;4156295;28;20099;-66
2022/06/14 05:39:57;;;;;;;2.15;0.40;;;22.10;99.90;;;;;;4154953;28;20091;-68
2022/06/14 05:42:09;;;;;;;2.97;0.45;;;22.10;99.90;;;;;;4155626;28;20076;-65
2022/06/14 05:44:32;;;;;;;1.08;0.47;;;22.20;99.90;;;;;;4154641;28;20049;-65
2022/06/14 05:46:41;;;;;;;2.88;0.50;;;22.30;99.90;;;;;;4158104;28;20068;-66
2022/06/14 05:48:50;;;;;;;1.17;0.40;;;22.10;99.90;;;;;;4157483;28;20167;-65
2022/06/14 05:50:54;;;;;;;0.45;0.40;;;22.00;99.90;;;;;;4158673;28;20037;-65
2022/06/14 05:53:36;;;;;;;0.80;0.50;;;22.10;99.90;;;;;;4158192;28;20037;-65
2022/06/14 05:56:06;;;;;;;8.70;2.22;;;21.80;99.90;;;;;;4140336;28;20042;-65
2022/06/14 05:58:17;;;;;;;3.17;1.38;;;22.30;99.90;;;;;;4137009;28;20054;-67
2022/06/14 06:00:27;;;;;;;1.13;0.43;;;22.50;99.90;;;;;;4143694;28;20041;-65
2022/06/14 06:02:49;;;;;;;2.35;0.47;;;22.50;99.90;;;;;;4156405;28;20026;-67
2022/06/14 06:05:08;;;;;;;3.35;0.30;;;22.50;99.30;;;;;;4156969;28;20042;-65
2022/06/14 06:07:12;;;;;;;5.88;0.50;;;22.40;99.70;;;;;;4156649;28;20099;-67
2022/06/14 06:09:30;;;;;;;2.25;0.40;;;22.10;99.80;;;;;;4157927;28;20057;-69
2022/06/14 06:11:43;;;;;;;0.93;0.40;;;22.10;99.70;;;;;;4156469;28;20762;-70
2022/06/14 06:13:55;;;;;;;2.20;0.38;;;22.10;99.80;;;;;;4157551;28;20421;-66
2022/06/14 06:16:04;;;;;;;1.00;0.30;;;22.10;99.90;;;;;;4156345;28;20049;-67
2022/06/14 06:18:35;;;;;;;0.50;0.40;;;22.00;99.70;;;;;;4156682;28;20140;-67
2022/06/14 06:20:44;;;;;;;2.60;0.45;;;22.10;99.80;;;;;;4153633;28;20088;-65
2022/06/14 06:23:18;;;;;;;1.33;0.45;;;22.40;99.40;;;;;;4156866;28;20260;-65
2022/06/14 06:25:30;;;;;;;1.48;0.40;;;23.00;98.80;;;;;;4152854;28;20815;-67
2022/06/14 06:27:40;;;;;;;0.40;0.40;;;22.90;98.20;;;;;;4155867;28;20095;-64
2022/06/14 06:29:53;;;;;;;1.35;0.57;;;22.60;98.40;;;;;;4156857;28;20103;-65
2022/06/14 06:31:54;;;;;;;1.08;0.40;;;22.20;98.90;;;;;;4155755;28;20037;-66
2022/06/14 06:34:00;;;;;;;0.93;0.40;;;22.10;99.10;;;;;;4157309;28;20033;-67
2022/06/14 06:36:24;;;;;;;2.17;0.60;;;22.00;99.20;;;;;;4156371;28;20029;-65
2022/06/14 06:38:58;;;;;;;1.15;0.40;;;22.00;99.20;;;;;;4145887;28;20552;-66
2022/06/14 06:43:52;;;;;;;2.80;1.10;;;22.00;99.00;;;;;;4157416;28;20101;-65
2022/06/14 06:45:54;;;;;;;1.25;0.43;;;22.10;99.00;;;;;;4156268;28;20096;-68
2022/06/14 06:48:22;;;;;;;1.27;0.50;;;22.30;98.70;;;;;;4157501;28;20025;-67
2022/06/14 06:50:29;;;;;;;0.80;0.30;;;22.80;97.90;;;;;;4156095;28;20041;-65
2022/06/14 06:52:58;;;;;;;0.75;0.30;;;22.80;98.10;;;;;;4157160;28;20025;-65
2022/06/14 06:55:06;;;;;;;0.85;0.50;;;22.50;98.00;;;;;;4156338;28;20091;-65
2022/06/14 06:57:14;;;;;;;1.75;0.40;;;22.30;98.40;;;;;;4115642;28;1187902;-66
2022/06/14 06:59:21;;;;;;;2.30;0.30;;;22.60;98.30;;;;;;4157110;28;20052;-65
2022/06/14 07:01:37;;;;;;;8.02;1.42;;;22.60;98.30;;;;;;4158495;28;20638;-66
2022/06/14 07:03:52;;;;;;;1.00;0.30;;;22.50;98.10;;;;;;4157412;28;20033;-66
2022/06/14 07:05:56;;;;;;;1.65;0.60;;;22.60;97.90;;;;;;4157376;28;20103;-66
2022/06/14 07:08:11;;;;;;;0.40;0.35;;;22.50;98.00;;;;;;4157358;28;20037;-69
2022/06/14 07:10:18;;;;;;;1.92;0.35;;;22.50;97.80;;;;;;4157532;28;20441;-68
2022/06/14 07:12:39;;;;;;;1.75;0.30;;;22.70;97.80;;;;;;4156601;28;20555;-67
2022/06/14 07:15:04;;;;;;;1.27;0.45;;;22.40;97.20;;;;;;4157321;28;20041;-70
2022/06/14 07:17:25;;;;;;;1.80;0.40;;;22.40;97.70;;;;;;4157873;28;20025;-67
2022/06/14 07:19:37;;;;;;;0.95;0.20;;;22.50;97.60;;;;;;4157243;28;20029;-66
2022/06/14 07:21:45;;;;;;;1.70;0.50;;;22.50;97.60;;;;;;4156511;28;20461;-69
2022/06/14 07:23:51;;;;;;;3.30;0.60;;;22.50;97.50;;;;;;4156134;28;20045;-65
2022/06/14 07:26:15;;;;;;;0.85;0.40;;;22.60;97.40;;;;;;4157064;28;20086;-65
2022/06/14 07:28:28;;;;;;;4.25;0.60;;;22.50;97.30;;;;;;4156394;28;20112;-65
2022/06/14 07:30:35;;;;;;;4.47;0.43;;;22.50;97.40;;;;;;4157446;28;20123;-65
2022/06/14 07:32:46;;;;;;;3.60;0.47;;;22.60;97.40;;;;;;4156333;28;20049;-66
2022/06/14 07:34:48;;;;;;;1.63;0.52;;;22.70;97.20;;;;;;4157774;28;20025;-69
2022/06/14 07:36:49;;;;;;;2.63;0.60;;;22.90;97.10;;;;;;4156451;28;20045;-69
2022/06/14 07:39:43;;;;;;;0.40;0.40;;;23.00;96.80;;;;;;4157943;28;20107;-66
2022/06/14 07:41:52;;;;;;;0.60;0.30;;;22.70;96.50;;;;;;4146739;28;20103;-69
2022/06/14 07:44:04;;;;;;;0.88;0.40;;;22.50;96.80;;;;;;4157183;28;20041;-67
2022/06/14 07:46:14;;;;;;;0.90;0.80;;;22.60;96.90;;;;;;4156142;28;20029;-66
2022/06/14 07:48:20;;;;;;;1.77;0.60;;;22.70;96.50;;;;;;4158323;28;20053;-67
2022/06/14 07:51:04;;;;;;;2.75;0.65;;;22.80;96.70;;;;;;4156220;28;20025;-66
2022/06/14 07:53:17;;;;;;;0.80;0.40;;;22.70;96.30;;;;;;4157059;28;20033;-67
2022/06/14 07:55:33;;;;;;;1.70;0.40;;;22.80;96.00;;;;;;4156181;28;20115;-70
2022/06/14 07:57:39;;;;;;;1.50;0.52;;;22.80;95.70;;;;;;4156580;28;20099;-66
2022/06/14 07:59:48;;;;;;;1.85;0.60;;;22.70;95.80;;;;;;4155748;28;20485;-68
2022/06/14 08:02:26;;;;;;;4.35;0.55;;;22.70;95.70;;;;;;4156980;28;20580;-67
2022/06/14 08:04:41;;;;;;;0.45;0.40;;;22.60;95.10;;;;;;4155573;28;20483;-68
2022/06/14 08:06:52;;;;;;;2.03;0.50;;;22.40;95.20;;;;;;4155739;28;20087;-66
2022/06/14 08:09:18;;;;;;;1.20;0.50;;;22.30;95.30;;;;;;4156137;28;20041;-67
2022/06/14 08:11:28;;;;;;;1.55;0.73;;;22.40;95.60;;;;;;4155144;28;20033;-68
2022/06/14 08:13:35;;;;;;;3.92;0.57;;;22.50;95.50;;;;;;4157384;28;20127;-65
2022/06/14 08:15:49;;;;;;;1.10;1.00;;;22.60;95.30;;;;;;4155922;28;20492;-66
2022/06/14 08:18:00;;;;;;;1.90;0.70;;;22.40;95.10;;;;;;4156927;28;20029;-69
2022/06/14 08:20:21;;;;;;;3.42;0.63;;;22.50;95.20;;;;;;4156094;28;20816;-68
2022/06/14 08:22:27;;;;;;;;;;;22.60;95.30;;;;;;4157255;28;20088;-67
2022/06/14 08:24:35;;;;;;;0.55;0.38;;;22.80;94.80;;;;;;4155514;28;19913;-65
2022/06/14 08:27:09;;;;;;;4.55;0.47;;;22.80;95.00;;;;;;4156269;28;20474;-68
2022/06/14 08:29:25;;;;;;;1.42;0.40;;;22.90;95.00;;;;;;4149852;28;20501;-65
2022/06/14 08:31:48;;;;;;;2.50;0.68;;;23.10;94.60;;;;;;4156890;28;20045;-67
2022/06/14 08:33:57;;;;;;;6.72;0.88;;;23.30;94.30;;;;;;4155376;28;20075;-67
2022/06/14 08:36:11;;;;;;;3.30;0.47;;;23.20;93.40;;;;;;4156153;28;20902;-66
2022/06/14 08:38:17;;;;;;;2.10;0.52;;;23.30;93.20;;;;;;4156090;28;20034;-66
2022/06/14 08:40:32;;;;;;;2.55;0.43;;;23.20;93.10;;;;;;4156407;28;20099;-65
2022/06/14 08:42:48;;;;;;;2.22;0.60;;;23.10;92.40;;;;;;4155055;28;20029;-66
2022/06/14 08:44:57;;;;;;;0.47;0.47;;;23.10;92.70;;;;;;4156749;28;20083;-66
2022/06/14 08:47:01;;;;;;;0.63;0.40;;;23.00;92.40;;;;;;4155179;28;20091;-68
2022/06/14 08:49:21;;;;;;;2.70;0.65;;;22.80;92.80;;;;;;4156691;28;20820;-67
2022/06/14 08:51:33;;;;;;;0.57;0.57;;;22.80;92.90;;;;;;4154879;28;20099;-69
2022/06/14 08:54:01;;;;;;;0.40;0.40;;;22.90;92.80;;;;;;4156179;28;20744;-66
2022/06/14 08:56:06;;;;;;;0.88;0.50;;;22.90;91.90;;;;;;4155001;28;20033;-67
2022/06/14 08:58:44;;;;;;;5.30;1.20;;;22.90;92.50;;;;;;4156058;28;20045;-66
2022/06/14 09:00:48;;;;;;;1.77;0.35;;;22.90;91.40;;;;;;4156141;28;20040;-66
2022/06/14 09:03:04;;;;;;;1.80;0.52;;;22.90;92.10;;;;;;4155797;28;20034;-66
2022/06/14 09:05:17;;;;;;;3.05;0.55;;;22.80;92.10;;;;;;4155515;28;20513;-66
2022/06/14 09:07:51;;;;;;;1.33;0.80;;;22.90;92.40;;;;;;4154956;28;20489;-66
2022/06/14 09:09:55;;;;;;;9.10;0.82;;;22.90;91.90;;;;;;4156520;28;20037;-65
2022/06/14 09:12:17;;;;;;;2.42;1.00;;;23.00;91.90;;;;;;4154617;28;20079;-67
2022/06/14 09:14:37;;;;;;;3.05;0.70;;;23.10;91.10;;;;;;4155939;28;20084;-67
2022/06/14 09:17:02;;;;;;;2.10;0.80;;;23.10;90.90;;;;;;4154951;28;20033;-64
2022/06/14 09:19:22;;;;;;;1.90;0.57;;;23.20;91.30;;;;;;4156014;28;20037;-65
2022/06/14 09:21:38;;;;;;;1.30;0.63;;;23.20;90.90;;;;;;4155004;28;20678;-66
2022/06/14 09:23:51;;;;;;;5.07;0.68;;;23.00;90.50;;;;;;4155895;28;20033;-66
2022/06/14 09:26:13;;;;;;;3.70;0.80;;;22.90;90.10;;;;;;4153362;28;20440;-68
2022/06/14 09:28:17;;;;;;;3.92;0.77;;;22.60;90.50;;;;;;4155730;28;20033;-65
2022/06/14 09:30:29;;;;;;;7.95;0.70;;;22.60;91.20;;;;;;4154405;28;20037;-65
2022/06/14 09:35:49;;;;;;;1.90;0.40;;;22.70;90.40;;;;;;4154715;28;20033;-65
2022/06/14 09:38:33;;;;;;;2.60;0.68;;;22.80;90.60;;;;;;4147019;28;20088;-66
2022/06/14 09:40:58;;;;;;;1.38;0.90;;;22.80;90.30;;;;;;4155320;28;20030;-67
2022/06/14 09:43:11;;;;;;;4.38;0.50;;;22.80;90.90;;;;;;4153736;28;20091;-66
2022/06/14 09:45:34;;;;;;;8.32;0.80;;;22.80;90.90;;;;;;4156092;28;20083;-67
2022/06/14 09:47:58;;;;;;;1.58;0.65;;;22.90;90.60;;;;;;4154294;28;20037;-67
2022/06/14 09:50:11;;;;;;;2.53;0.57;;;22.80;90.50;;;;;;4155340;28;20041;-65
2022/06/14 09:52:12;;;;;;;2.03;0.63;;;22.70;91.40;;;;;;4154549;28;20090;-65
2022/06/14 09:54:35;;;;;;;1.63;0.68;;;22.70;90.90;;;;;;4155769;28;20131;-66
2022/06/14 09:57:40;;;;;;;2.50;0.57;;;22.80;89.30;;;;;;4153642;28;20067;-64
2022/06/14 09:59:56;;;;;;;1.35;0.68;;;22.90;90.20;;;;;;4119086;28;20042;-65
2022/06/14 10:02:18;;;;;;;4.07;1.05;;;23.00;90.70;;;;;;4120648;28;20038;-65
2022/06/14 10:04:40;;;;;;;2.15;0.65;;;23.20;90.00;;;;;;4127264;28;20371;-65
2022/06/14 10:06:56;;;;;;;2.42;1.08;;;23.20;90.10;;;;;;4155321;28;20041;-66
2022/06/14 10:09:13;;;;;;;4.72;0.50;;;23.20;89.30;;;;;;4154242;28;20045;-64
2022/06/14 10:11:46;;;;;;;1.50;0.85;;;23.20;88.20;;;;;;4155060;28;20425;-66
2022/06/14 10:14:32;;;;;;;2.53;1.00;;;23.10;87.50;;;;;;4154073;28;20057;-70
2022/06/14 10:17:21;;;;;;;2.70;0.60;;;23.00;86.80;;;;;;4145660;28;20041;-65
2022/06/14 10:19:31;;;;;;;2.20;0.60;;;22.90;83.90;;;;;;4152866;28;20803;-67
2022/06/14 10:22:10;;;;;;;4.40;0.77;;;22.80;86.90;;;;;;4155085;28;20905;-66
2022/06/14 10:24:30;;;;;;;3.55;1.02;;;22.70;86.00;;;;;;4144673;28;20042;-66
2022/06/14 10:29:21;;;;;;;5.40;0.80;;;22.80;87.50;;;;;;4155748;28;20428;-67
2022/06/14 10:31:37;;;;;;;3.40;1.00;;;23.00;83.90;;;;;;4155610;28;20084;-67
2022/06/14 10:33:59;;;;;;;3.70;1.10;;;23.10;83.20;;;;;;4158003;28;20033;-67
2022/06/14 10:36:07;;;;;;;1.35;0.70;;;23.00;84.60;;;;;;4157896;28;20047;-68
2022/06/14 10:38:46;;;;;;;2.47;0.70;;;22.90;84.90;;;;;;4157697;28;20387;-65
2022/06/14 10:41:19;;;;;;;2.03;0.65;;;22.80;84.10;;;;;;4159025;28;20382;-66
2022/06/14 10:43:54;;;;;;;1.73;0.75;;;22.70;84.50;;;;;;4149049;28;20397;-67
2022/06/14 10:46:03;;;;;;;2.13;0.80;;;22.80;84.80;;;;;;4158357;28;20033;-66
2022/06/14 10:48:19;;;;;;;2.35;0.77;;;22.80;83.00;;;;;;4156781;28;20083;-65
2022/06/14 10:50:56;;;;;;;4.10;0.85;;;22.80;83.90;;;;;;4158365;28;20136;-65
2022/06/14 10:53:34;;;;;;;2.83;0.85;;;22.70;83.10;;;;;;4157425;28;20038;-66
2022/06/14 10:55:57;;;;;;;4.20;0.63;;;22.60;84.30;;;;;;4157154;28;20029;-65
2022/06/14 10:58:07;;;;;;;5.15;1.55;;;22.50;81.80;;;;;;4157510;28;20375;-66
2022/06/14 11:00:25;;;;;;;2.10;0.82;;;22.50;81.10;;;;;;4157331;28;20029;-65
2022/06/14 11:02:54;;;;;;;3.03;0.80;;;22.60;80.70;;;;;;4158432;28;20071;-66
2022/06/14 11:05:25;;;;;;;2.00;0.60;;;22.50;80.80;;;;;;4156797;28;20029;-64
2022/06/14 11:07:35;;;;;;;1.83;0.80;;;22.60;81.40;;;;;;4158175;28;20025;-67
2022/06/14 11:10:04;;;;;;;7.20;1.00;;;22.70;82.80;;;;;;4157383;28;20519;-67
2022/06/14 11:12:13;;;;;;;2.25;0.90;;;22.90;83.20;;;;;;4157567;28;20030;-65
2022/06/14 11:14:43;;;;;;;1.00;0.70;;;23.00;82.10;;;;;;4156619;28;20037;-66
2022/06/14 11:17:06;;;;;;;3.28;1.00;;;22.90;81.40;;;;;;4157431;28;20038;-66
2022/06/14 11:19:35;;;;;;;3.75;0.77;;;22.80;80.70;;;;;;4157106;28;20041;-68
2022/06/14 11:21:52;;;;;;;2.67;1.35;;;22.60;81.60;;;;;;4156260;28;20045;-66
2022/06/14 11:24:04;;;;;;;1.70;0.85;;;22.60;81.80;;;;;;4158077;28;20083;-68
2022/06/14 11:26:16;;;;;;;4.60;1.08;;;22.80;81.50;;;;;;4156629;28;20025;-69
2022/06/14 11:28:51;;;;;;;2.40;0.70;;;22.90;81.20;;;;;;4157983;28;20021;-65
2022/06/14 11:31:32;;;;;;;5.55;1.02;;;22.90;79.80;;;;;;4156276;28;20119;-66
2022/06/14 11:33:47;;;;;;;10.20;1.38;;;22.60;78.90;;;;;;4157698;28;20030;-70
2022/06/14 11:36:14;;;;;;;3.42;1.02;;;22.50;80.00;;;;;;4156246;28;20021;-67
2022/06/14 11:38:23;;;;;;;3.63;0.90;;;22.30;79.60;;;;;;4157118;28;20033;-65
2022/06/14 11:40:28;;;;;;;4.43;0.80;;;22.30;80.50;;;;;;4157119;28;20037;-69
2022/06/14 11:42:41;;;;;;;3.58;0.70;;;22.30;80.80;;;;;;4155585;28;20369;-68
2022/06/14 11:45:13;;;;;;;3.53;0.75;;;22.40;80.20;;;;;;4156611;28;20107;-65
2022/06/14 11:47:24;;;;;;;3.38;0.88;;;22.40;78.00;;;;;;4156621;28;20037;-68
2022/06/14 11:49:37;;;;;;;5.15;1.15;;;22.40;78.30;;;;;;4156804;28;20037;-68
2022/06/14 11:51:58;;;;;;;5.53;0.70;;;22.40;79.60;;;;;;4156697;28;20571;-69
2022/06/14 11:54:22;;;;;;;4.20;1.00;;;22.50;79.00;;;;;;4157297;28;20087;-68
2022/06/14 11:57:08;;;;;;;4.38;0.80;;;22.70;77.50;;;;;;4156028;28;20049;-69
2022/06/14 11:59:24;;;;;;;4.60;0.77;;;23.00;78.30;;;;;;4138733;28;20459;-63